Harenkarspel, Netherlands
Current Conditions -  °F | °C
As of 6:42 AM on Thursday 27 Nov 2014 (Local Time) from EHKD Reporting Station
Haze Haze  
Wind Chill: 37°   Ceiling: 200
Heat Index: 43°   Visibility: 1.5mi
Dew Point: 43°   Wind: 9mph
Humidity: 100%   Direction: 140°SE
Pressure: 29.74"   Gusts: NA
Location:  52.73°N, 4.78°E
Report Text: EHKD 270542Z AUTO 14008KT 2500 R21/2200 BR BKN002 06/06 Q1007 AMB 14010KT 2000 BR SCT003 BKN004 TEMPO 1100 -DZRA BR SCT001 BKN002
Loading
Personal Weather Stations






























Interactive Weather Map New forecast layout! Learn more

10-Day Weather Forecast

Advertisements
Track Severe Weather on mobile